createdAt,value
2023-02-01T00:00:55.921Z,309.18
2023-02-01T00:01:55.904Z,309.18
2023-02-01T00:02:55.922Z,309.18
2023-02-01T00:03:55.952Z,309.18
2023-02-01T00:04:55.902Z,309.18
2023-02-01T00:05:55.906Z,309.18
2023-02-01T00:06:55.915Z,309.18
2023-02-01T00:07:55.930Z,309.18
2023-02-01T00:08:55.944Z,309.18
2023-02-01T00:09:55.913Z,309.18
2023-02-01T00:10:55.906Z,309.18
2023-02-01T00:11:55.916Z,309.18
2023-02-01T00:12:55.916Z,309.18
2023-02-01T00:13:55.911Z,309.18
2023-02-01T00:14:55.916Z,309.18
2023-02-01T00:15:55.948Z,309.18
2023-02-01T00:16:55.945Z,309.18
2023-02-01T00:17:55.921Z,309.18
2023-02-01T00:18:55.912Z,309.18
2023-02-01T00:19:55.908Z,309.18
2023-02-01T00:20:55.916Z,309.18
2023-02-01T00:21:55.923Z,309.18
2023-02-01T00:22:55.926Z,309.18
2023-02-01T00:23:55.914Z,309.18
2023-02-01T00:24:55.925Z,309.18
2023-02-01T00:25:55.929Z,309.18
2023-02-01T00:26:55.963Z,309.18
2023-02-01T00:27:55.930Z,309.18
2023-02-01T00:28:55.931Z,309.18
2023-02-01T00:29:55.944Z,309.18
2023-02-01T00:30:55.999Z,309.18
2023-02-01T00:31:55.995Z,309.18
2023-02-01T00:32:55.954Z,309.18
2023-02-01T00:33:55.921Z,309.18
2023-02-01T00:34:55.952Z,309.18
2023-02-01T00:35:55.928Z,309.18
2023-02-01T00:36:55.926Z,48
2023-02-01T00:37:55.925Z,48
2023-02-01T00:38:55.929Z,43.76
2023-02-01T00:39:55.937Z,42.35
2023-02-01T00:40:55.940Z,38.12
2023-02-01T00:41:55.940Z,28.24
2023-02-01T00:42:55.937Z,31.06
2023-02-01T00:43:55.934Z,24
2023-02-01T00:44:55.942Z,39.53
2023-02-01T00:45:55.942Z,39.53
2023-02-01T00:46:55.986Z,39.53
2023-02-01T00:47:55.950Z,39.53
2023-02-01T00:48:55.954Z,39.53
2023-02-01T00:49:55.948Z,347.29
2023-02-01T00:50:55.948Z,352.94
2023-02-01T00:51:55.965Z,25.41
2023-02-01T00:52:55.949Z,25.41
2023-02-01T00:53:55.942Z,25.41
2023-02-01T00:54:55.940Z,25.41
2023-02-01T00:55:55.941Z,25.41
2023-02-01T00:56:55.954Z,25.41
2023-02-01T00:57:55.938Z,25.41
2023-02-01T00:58:55.952Z,25.41
2023-02-01T00:59:55.956Z,25.41
2023-02-01T01:00:56.029Z,25.41
2023-02-01T01:01:56.028Z,25.41
2023-02-01T01:02:55.951Z,25.41
2023-02-01T01:03:55.950Z,25.41
2023-02-01T01:04:55.994Z,25.41
2023-02-01T01:05:55.963Z,25.41
2023-02-01T01:06:55.945Z,25.41
2023-02-01T01:07:55.970Z,21.18
2023-02-01T01:08:55.970Z,26.82
2023-02-01T01:09:55.972Z,4.24
2023-02-01T01:10:55.951Z,7.06
2023-02-01T01:11:55.959Z,320.47
2023-02-01T01:12:55.972Z,296.47
2023-02-01T01:13:55.983Z,296.47
2023-02-01T01:14:55.959Z,296.47
2023-02-01T01:15:55.966Z,296.47
2023-02-01T01:16:55.958Z,296.47
2023-02-01T01:17:55.961Z,296.47
2023-02-01T01:18:55.974Z,296.47
2023-02-01T01:19:57.208Z,296.47
2023-02-01T01:20:56.003Z,296.47
2023-02-01T01:21:55.968Z,296.47
2023-02-01T01:22:55.964Z,296.47
2023-02-01T01:23:55.967Z,296.47
2023-02-01T01:24:55.980Z,296.47
2023-02-01T01:25:55.981Z,296.47
2023-02-01T01:26:56.009Z,296.47
2023-02-01T01:27:55.981Z,296.47
2023-02-01T01:28:55.996Z,296.47
2023-02-01T01:29:55.983Z,296.47
2023-02-01T01:30:56.022Z,296.47
2023-02-01T01:31:55.991Z,296.47
2023-02-01T01:32:55.977Z,296.47
2023-02-01T01:33:55.984Z,296.47
2023-02-01T01:34:55.973Z,296.47
2023-02-01T01:35:55.985Z,296.47
2023-02-01T01:36:56.092Z,296.47
2023-02-01T01:37:55.977Z,296.47
2023-02-01T01:38:55.988Z,296.47
2023-02-01T01:39:55.987Z,296.47
2023-02-01T01:40:55.992Z,296.47
2023-02-01T01:41:55.982Z,296.47
2023-02-01T01:42:55.978Z,296.47
2023-02-01T01:43:55.994Z,296.47
2023-02-01T01:44:55.993Z,296.47
2023-02-01T01:45:56.039Z,296.47
2023-02-01T01:46:56.000Z,296.47
2023-02-01T01:47:55.992Z,296.47
2023-02-01T01:48:55.984Z,296.47
2023-02-01T01:49:55.991Z,296.47
2023-02-01T01:50:55.996Z,296.47
2023-02-01T01:51:55.982Z,296.47
2023-02-01T01:52:56.023Z,296.47
2023-02-01T01:53:55.984Z,296.47
2023-02-01T01:54:55.983Z,296.47
2023-02-01T01:55:55.990Z,296.47
2023-02-01T01:56:55.997Z,296.47
2023-02-01T01:57:56.001Z,296.47
2023-02-01T01:58:55.994Z,296.47
2023-02-01T01:59:55.988Z,296.47
2023-02-01T02:00:56.045Z,285.18
2023-02-01T02:01:56.064Z,292.24
2023-02-01T02:02:56.008Z,295.06
2023-02-01T02:03:55.993Z,295.06
2023-02-01T02:04:55.993Z,295.06
2023-02-01T02:05:56.008Z,295.06
2023-02-01T02:06:55.993Z,295.06
2023-02-01T02:07:56.011Z,295.06
2023-02-01T02:08:56.034Z,295.06
2023-02-01T02:10:00.738Z,295.06
2023-02-01T02:10:55.989Z,295.06
2023-02-01T02:11:56.012Z,295.06
2023-02-01T02:12:55.994Z,295.06
2023-02-01T02:13:55.999Z,295.06
2023-02-01T02:14:56.013Z,295.06
2023-02-01T02:15:55.999Z,295.06
2023-02-01T02:16:56.007Z,295.06
2023-02-01T02:17:55.995Z,295.06
2023-02-01T02:18:55.992Z,295.06
2023-02-01T02:19:55.998Z,295.06
2023-02-01T02:20:56.011Z,295.06
2023-02-01T02:21:56.012Z,295.06
2023-02-01T02:22:56.013Z,295.06
2023-02-01T02:23:55.999Z,295.06
2023-02-01T02:24:56.032Z,295.06
2023-02-01T02:25:55.989Z,295.06
2023-02-01T02:26:56.039Z,295.06
2023-02-01T02:27:56.027Z,295.06
2023-02-01T02:28:56.004Z,295.06
2023-02-01T02:29:56.021Z,295.06
2023-02-01T02:30:56.095Z,295.06
2023-02-01T02:31:56.065Z,295.06
2023-02-01T02:32:56.009Z,295.06
2023-02-01T02:33:56.002Z,295.06
2023-02-01T02:34:56.009Z,295.06
2023-02-01T02:35:56.011Z,295.06
2023-02-01T02:36:56.031Z,295.06
2023-02-01T02:37:56.012Z,295.06
2023-02-01T02:38:56.006Z,295.06
2023-02-01T02:39:56.026Z,295.06
2023-02-01T02:40:56.042Z,295.06
2023-02-01T02:41:56.014Z,295.06
2023-02-01T02:42:57.539Z,295.06
2023-02-01T02:43:56.009Z,295.06
2023-02-01T02:44:56.020Z,295.06
2023-02-01T02:45:56.049Z,295.06
2023-02-01T02:46:56.023Z,295.06
2023-02-01T02:47:56.013Z,295.06
2023-02-01T02:48:56.019Z,295.06
2023-02-01T02:49:56.033Z,295.06
2023-02-01T02:50:56.027Z,295.06
2023-02-01T02:51:56.022Z,295.06
2023-02-01T02:52:56.026Z,295.06
2023-02-01T02:53:56.013Z,295.06
2023-02-01T02:54:56.007Z,295.06
2023-02-01T02:55:56.021Z,295.06
2023-02-01T02:56:56.027Z,295.06
2023-02-01T02:57:56.014Z,295.06
2023-02-01T02:58:56.009Z,295.06
2023-02-01T02:59:56.049Z,295.06
2023-02-01T03:00:56.090Z,295.06
2023-02-01T03:01:56.011Z,295.06
2023-02-01T03:02:56.062Z,295.06
2023-02-01T03:03:56.013Z,295.06
2023-02-01T03:04:56.027Z,295.06
2023-02-01T03:05:56.024Z,295.06
2023-02-01T03:06:56.016Z,295.06
2023-02-01T03:07:56.030Z,295.06
2023-02-01T03:08:56.017Z,295.06
2023-02-01T03:09:56.025Z,295.06
2023-02-01T03:10:56.014Z,295.06
2023-02-01T03:11:56.036Z,295.06
2023-02-01T03:12:56.060Z,295.06
2023-02-01T03:13:56.026Z,295.06
2023-02-01T03:14:56.032Z,295.06
2023-02-01T03:15:56.027Z,295.06
2023-02-01T03:16:56.033Z,295.06
2023-02-01T03:17:56.034Z,295.06
2023-02-01T03:18:56.045Z,295.06
2023-02-01T03:19:56.025Z,295.06
2023-02-01T03:20:56.036Z,295.06
2023-02-01T03:21:56.037Z,295.06
2023-02-01T03:22:56.044Z,295.06
2023-02-01T03:23:56.024Z,314.82
2023-02-01T03:24:56.043Z,313.41
2023-02-01T03:25:56.031Z,314.82
2023-02-01T03:26:56.062Z,313.41
2023-02-01T03:27:56.027Z,314.82
2023-02-01T03:28:56.054Z,313.41
2023-02-01T03:29:56.033Z,313.41
2023-02-01T03:30:56.083Z,314.82
2023-02-01T03:31:56.133Z,314.82
2023-02-01T03:32:56.033Z,320.47
2023-02-01T03:33:56.028Z,66.35
2023-02-01T03:34:56.035Z,60.71
2023-02-01T03:35:56.038Z,45.18
2023-02-01T03:36:56.025Z,45.18
2023-02-01T03:37:56.028Z,45.18
2023-02-01T03:38:56.030Z,45.18
2023-02-01T03:39:56.040Z,45.18
2023-02-01T03:40:56.037Z,45.18
2023-02-01T03:41:56.034Z,45.18
2023-02-01T03:42:56.037Z,45.18
2023-02-01T03:43:56.051Z,45.18
2023-02-01T03:44:56.081Z,45.18
2023-02-01T03:45:56.075Z,45.18
2023-02-01T03:46:56.048Z,45.18
2023-02-01T03:47:56.044Z,317.65
2023-02-01T03:48:56.056Z,317.65
2023-02-01T03:49:56.035Z,360
2023-02-01T03:50:56.052Z,345.88
2023-02-01T03:51:56.167Z,357.18
2023-02-01T03:52:56.047Z,18.35
2023-02-01T03:53:56.036Z,7.06
2023-02-01T03:54:56.046Z,15.53
2023-02-01T03:55:56.055Z,15.53
2023-02-01T03:56:56.049Z,341.65
2023-02-01T03:57:56.050Z,0
2023-02-01T03:58:56.038Z,319.06
2023-02-01T03:59:56.061Z,0
2023-02-01T04:00:56.117Z,355.76
2023-02-01T04:01:56.048Z,341.65
2023-02-01T04:02:56.052Z,330.35
2023-02-01T04:03:56.037Z,310.59
2023-02-01T04:04:56.043Z,334.59
2023-02-01T04:05:56.066Z,327.53
2023-02-01T04:06:56.054Z,340.24
2023-02-01T04:07:56.054Z,16.94
2023-02-01T04:08:56.055Z,351.53
2023-02-01T04:09:56.056Z,357.18
2023-02-01T04:10:56.065Z,331.76
2023-02-01T04:11:56.045Z,328.94
2023-02-01T04:12:56.056Z,333.18
2023-02-01T04:13:56.059Z,338.82
2023-02-01T04:14:56.051Z,338.82
2023-02-01T04:15:56.050Z,338.82
2023-02-01T04:16:56.120Z,338.82
2023-02-01T04:17:56.058Z,197.65
2023-02-01T04:18:56.049Z,182.12
2023-02-01T04:19:56.053Z,138.35
2023-02-01T04:20:56.055Z,138.35
2023-02-01T04:21:56.057Z,138.35
2023-02-01T04:22:56.082Z,138.35
2023-02-01T04:23:56.056Z,138.35
2023-02-01T04:24:56.069Z,138.35
2023-02-01T04:25:56.069Z,138.35
2023-02-01T04:26:56.052Z,138.35
2023-02-01T04:27:56.062Z,138.35
2023-02-01T04:28:56.057Z,91.76
2023-02-01T04:29:58.356Z,90.35
2023-02-01T04:30:56.167Z,86.12
2023-02-01T04:31:56.090Z,74.82
2023-02-01T04:32:56.070Z,48
2023-02-01T04:33:56.051Z,48
2023-02-01T04:34:56.061Z,111.53
2023-02-01T04:35:56.083Z,59.29
2023-02-01T04:36:56.056Z,59.29
2023-02-01T04:37:56.055Z,59.29
2023-02-01T04:38:56.076Z,56.47
2023-02-01T04:39:56.049Z,57.88
2023-02-01T04:40:56.050Z,57.88
2023-02-01T04:41:56.056Z,60.71
2023-02-01T04:42:56.068Z,57.88
2023-02-01T04:43:56.060Z,57.88
2023-02-01T04:44:56.058Z,59.29
2023-02-01T04:45:56.114Z,55.06
2023-02-01T04:46:56.061Z,59.29
2023-02-01T04:47:56.048Z,56.47
2023-02-01T04:48:56.084Z,50.82
2023-02-01T04:49:56.065Z,50.82
2023-02-01T04:50:56.064Z,50.82
2023-02-01T04:51:56.061Z,49.41
2023-02-01T04:52:56.062Z,49.41
2023-02-01T04:53:56.060Z,49.41
2023-02-01T04:54:57.854Z,49.41
2023-02-01T04:55:56.064Z,49.41
2023-02-01T04:56:56.068Z,49.41
2023-02-01T04:57:56.065Z,49.41
2023-02-01T04:58:56.072Z,49.41
2023-02-01T04:59:56.052Z,49.41
2023-02-01T05:00:56.083Z,49.41
2023-02-01T05:01:56.058Z,49.41
2023-02-01T05:02:56.065Z,49.41
2023-02-01T05:03:56.057Z,49.41
2023-02-01T05:04:56.117Z,49.41
2023-02-01T05:05:56.062Z,49.41
2023-02-01T05:06:56.058Z,49.41
2023-02-01T05:07:56.058Z,49.41
2023-02-01T05:08:56.060Z,49.41
2023-02-01T05:09:56.061Z,49.41
2023-02-01T05:10:56.067Z,49.41
2023-02-01T05:11:56.061Z,49.41
2023-02-01T05:12:56.080Z,49.41
2023-02-01T05:13:56.066Z,49.41
2023-02-01T05:14:56.066Z,49.41
2023-02-01T05:15:56.137Z,49.41
2023-02-01T05:16:56.062Z,81.88
2023-02-01T05:17:56.061Z,79.06
2023-02-01T05:18:56.078Z,79.06
2023-02-01T05:19:56.083Z,79.06
2023-02-01T05:20:56.095Z,79.06
2023-02-01T05:21:56.077Z,79.06
2023-02-01T05:22:56.070Z,79.06
2023-02-01T05:23:56.065Z,79.06
2023-02-01T05:24:56.069Z,79.06
2023-02-01T05:25:56.067Z,79.06
2023-02-01T05:26:56.064Z,79.06
2023-02-01T05:27:56.063Z,79.06
2023-02-01T05:28:56.077Z,79.06
2023-02-01T05:29:56.064Z,79.06
2023-02-01T05:30:56.195Z,79.06
2023-02-01T05:31:56.183Z,79.06
2023-02-01T05:32:56.057Z,79.06
2023-02-01T05:33:56.065Z,79.06
2023-02-01T05:34:56.072Z,79.06
2023-02-01T05:35:56.069Z,79.06
2023-02-01T05:36:56.088Z,79.06
2023-02-01T05:37:56.064Z,79.06
2023-02-01T05:38:56.075Z,79.06
2023-02-01T05:39:56.083Z,79.06
2023-02-01T05:40:56.077Z,79.06
2023-02-01T05:41:56.060Z,79.06
2023-02-01T05:42:56.073Z,79.06
2023-02-01T05:43:56.086Z,79.06
2023-02-01T05:44:56.073Z,79.06
2023-02-01T05:45:56.117Z,79.06
2023-02-01T05:46:56.073Z,94.59
2023-02-01T05:47:56.070Z,42.35
2023-02-01T05:48:56.099Z,42.35
2023-02-01T05:49:56.073Z,42.35
2023-02-01T05:50:56.061Z,42.35
2023-02-01T05:51:56.082Z,42.35
2023-02-01T05:52:56.110Z,42.35
2023-02-01T05:53:56.073Z,275.29
2023-02-01T05:54:56.079Z,265.41
2023-02-01T05:55:56.086Z,241.41
2023-02-01T05:56:56.073Z,241.41
2023-02-01T05:57:56.084Z,241.41
2023-02-01T05:58:56.074Z,241.41
2023-02-01T05:59:56.116Z,241.41
2023-02-01T06:00:56.064Z,241.41
2023-02-01T06:01:56.077Z,241.41
2023-02-01T06:02:56.125Z,76.24
2023-02-01T06:03:56.137Z,97.41
2023-02-01T06:04:56.084Z,96
2023-02-01T06:05:56.070Z,81.88
2023-02-01T06:06:56.095Z,81.88
2023-02-01T06:07:56.073Z,81.88
2023-02-01T06:08:56.094Z,81.88
2023-02-01T06:09:56.067Z,81.88
2023-02-01T06:10:56.081Z,81.88
2023-02-01T06:11:56.077Z,81.88
2023-02-01T06:12:56.073Z,81.88
2023-02-01T06:13:56.077Z,81.88
2023-02-01T06:14:56.097Z,81.88
2023-02-01T06:15:56.116Z,81.88
2023-02-01T06:16:56.080Z,81.88
2023-02-01T06:17:56.088Z,81.88
2023-02-01T06:18:56.105Z,81.88
2023-02-01T06:19:56.084Z,81.88
2023-02-01T06:20:56.080Z,81.88
2023-02-01T06:21:56.107Z,81.88
2023-02-01T06:22:56.092Z,81.88
2023-02-01T06:23:56.093Z,81.88
2023-02-01T06:24:56.122Z,81.88
2023-02-01T06:25:56.088Z,114.35
2023-02-01T06:26:56.107Z,112.94
2023-02-01T06:27:56.110Z,63.53
2023-02-01T06:28:56.113Z,63.53
2023-02-01T06:29:56.115Z,63.53
2023-02-01T06:30:56.177Z,63.53
2023-02-01T06:31:56.180Z,63.53
2023-02-01T06:32:56.099Z,73.41
2023-02-01T06:33:56.110Z,79.06
2023-02-01T06:34:56.110Z,79.06
2023-02-01T06:35:56.117Z,79.06
2023-02-01T06:36:56.124Z,79.06
2023-02-01T06:37:56.109Z,79.06
2023-02-01T06:38:56.132Z,83.29
2023-02-01T06:39:56.130Z,111.53
2023-02-01T06:40:56.145Z,100.24
2023-02-01T06:41:56.127Z,170.82
2023-02-01T06:42:56.124Z,231.53
2023-02-01T06:43:56.125Z,179.29
2023-02-01T06:44:56.135Z,172.24
2023-02-01T06:45:56.164Z,159.53
2023-02-01T06:46:56.227Z,87.53
2023-02-01T06:47:56.124Z,56.47
2023-02-01T06:48:56.124Z,56.47
2023-02-01T06:49:56.125Z,56.47
2023-02-01T06:50:56.137Z,110.12
2023-02-01T06:51:56.129Z,73.41
2023-02-01T06:52:56.146Z,94.59
2023-02-01T06:53:56.132Z,19.76
2023-02-01T06:54:56.137Z,50.82
2023-02-01T06:55:56.161Z,50.82
2023-02-01T06:56:56.165Z,50.82
2023-02-01T06:57:56.147Z,84.71
2023-02-01T06:58:56.137Z,80.47
2023-02-01T06:59:56.128Z,59.29
2023-02-01T07:00:56.239Z,81.88
2023-02-01T07:01:56.215Z,86.12
2023-02-01T07:02:56.160Z,55.06
2023-02-01T07:03:56.147Z,50.82
2023-02-01T07:04:56.143Z,50.82
2023-02-01T07:05:56.151Z,50.82
2023-02-01T07:06:56.170Z,114.35
2023-02-01T07:07:56.175Z,225.88
2023-02-01T07:08:56.150Z,242.82
2023-02-01T07:09:56.154Z,145.41
2023-02-01T07:10:56.174Z,149.65
2023-02-01T07:11:56.164Z,86.12
2023-02-01T07:12:56.180Z,74.82
2023-02-01T07:13:56.183Z,52.24
2023-02-01T07:14:56.162Z,57.88
2023-02-01T07:15:56.178Z,52.24
2023-02-01T07:16:56.159Z,62.12
2023-02-01T07:17:56.168Z,62.12
2023-02-01T07:18:56.173Z,70.59
2023-02-01T07:19:56.166Z,57.88
2023-02-01T07:20:56.182Z,60.71
2023-02-01T07:21:56.184Z,25.41
2023-02-01T07:22:56.199Z,286.59
2023-02-01T07:23:56.197Z,312
2023-02-01T07:24:56.203Z,293.65
2023-02-01T07:25:56.199Z,303.53
2023-02-01T07:26:56.211Z,302.12
2023-02-01T07:27:56.199Z,293.65
2023-02-01T07:28:56.210Z,357.18
2023-02-01T07:29:56.192Z,327.53
2023-02-01T07:30:56.224Z,317.65
2023-02-01T07:31:56.185Z,278.12
2023-02-01T07:32:56.238Z,12.71
2023-02-01T07:33:56.177Z,328.94
2023-02-01T07:34:56.198Z,351.53
2023-02-01T07:35:56.191Z,360
2023-02-01T07:36:56.183Z,323.29
2023-02-01T07:37:56.192Z,14.12
2023-02-01T07:38:56.740Z,5.65
2023-02-01T07:39:56.247Z,324.71
2023-02-01T07:40:56.193Z,321.88
2023-02-01T07:41:56.194Z,324.71
2023-02-01T07:42:56.186Z,336
2023-02-01T07:43:56.201Z,343.06
2023-02-01T07:44:56.231Z,300.71
2023-02-01T07:45:56.245Z,282.35
2023-02-01T07:46:56.219Z,280.94
2023-02-01T07:47:56.208Z,290.82
2023-02-01T07:48:56.204Z,347.29
2023-02-01T07:49:56.224Z,11.29
2023-02-01T07:50:56.224Z,21.18
2023-02-01T07:51:56.205Z,347.29
2023-02-01T07:52:56.213Z,74.82
2023-02-01T07:53:56.499Z,28.24
2023-02-01T07:54:56.208Z,8.47
2023-02-01T07:55:56.208Z,360
2023-02-01T07:56:56.240Z,304.94
2023-02-01T07:57:56.225Z,320.47
2023-02-01T07:58:56.226Z,350.12
2023-02-01T07:59:56.224Z,360
2023-02-01T08:00:56.333Z,314.82
2023-02-01T08:01:56.273Z,314.82
2023-02-01T08:02:56.218Z,313.41
2023-02-01T08:03:56.218Z,354.35
2023-02-01T08:04:56.229Z,341.65
2023-02-01T08:05:56.227Z,293.65
2023-02-01T08:06:56.241Z,290.82
2023-02-01T08:07:56.233Z,317.65
2023-02-01T08:08:56.241Z,320.47
2023-02-01T08:09:56.234Z,11.29
2023-02-01T08:10:56.230Z,4.24
2023-02-01T08:11:56.238Z,269.65
2023-02-01T08:12:56.241Z,354.35
2023-02-01T08:13:56.275Z,25.41
2023-02-01T08:14:56.230Z,19.76
2023-02-01T08:15:56.233Z,72
2023-02-01T08:16:56.257Z,46.59
2023-02-01T08:17:56.226Z,73.41
2023-02-01T08:18:56.240Z,200.47
2023-02-01T08:19:56.236Z,49.41
2023-02-01T08:20:56.246Z,46.59
2023-02-01T08:21:56.252Z,155.29
2023-02-01T08:22:56.247Z,107.29
2023-02-01T08:23:56.252Z,220.24
2023-02-01T08:24:56.234Z,206.12
2023-02-01T08:25:56.247Z,173.65
2023-02-01T08:26:56.336Z,173.65
2023-02-01T08:27:56.260Z,173.65
2023-02-01T08:28:56.265Z,45.18
2023-02-01T08:29:56.243Z,100.24
2023-02-01T08:30:56.272Z,141.18
2023-02-01T08:31:56.273Z,110.12
2023-02-01T08:32:56.267Z,110.12
2023-02-01T08:33:56.249Z,323.29
2023-02-01T08:34:56.236Z,352.94
2023-02-01T08:35:56.254Z,32.47
2023-02-01T08:36:56.247Z,26.82
2023-02-01T08:37:56.263Z,237.18
2023-02-01T08:38:56.274Z,94.59
2023-02-01T08:39:56.282Z,77.65
2023-02-01T08:40:56.262Z,67.76
2023-02-01T08:41:56.265Z,29.65
2023-02-01T08:42:56.243Z,77.65
2023-02-01T08:43:56.256Z,36.71
2023-02-01T08:44:56.250Z,32.47
2023-02-01T08:45:56.988Z,32.47
2023-02-01T08:46:56.246Z,32.47
2023-02-01T08:47:56.254Z,32.47
2023-02-01T08:48:56.280Z,32.47
2023-02-01T08:49:56.247Z,59.29
2023-02-01T08:50:56.264Z,43.76
2023-02-01T08:51:58.419Z,48
2023-02-01T08:52:56.254Z,40.94
2023-02-01T08:53:56.266Z,299.29
2023-02-01T08:54:56.251Z,292.24
2023-02-01T08:55:56.248Z,288
2023-02-01T08:56:56.273Z,293.65
2023-02-01T08:57:56.266Z,316.24
2023-02-01T08:58:56.268Z,16.94
2023-02-01T08:59:56.301Z,50.82
2023-02-01T09:00:56.315Z,249.88
2023-02-01T09:01:56.261Z,207.53
2023-02-01T09:02:56.264Z,180.71
2023-02-01T09:03:56.289Z,180.71
2023-02-01T09:04:56.291Z,269.65
2023-02-01T09:05:56.251Z,207.53
2023-02-01T09:06:56.262Z,183.53
2023-02-01T09:07:56.262Z,183.53
2023-02-01T09:08:56.256Z,183.53
2023-02-01T09:09:56.250Z,39.53
2023-02-01T09:10:56.254Z,39.53
2023-02-01T09:11:56.258Z,312
2023-02-01T09:12:56.252Z,280.94
2023-02-01T09:13:56.275Z,288
2023-02-01T09:14:56.265Z,295.06
2023-02-01T09:15:56.295Z,278.12
2023-02-01T09:16:56.274Z,272.47
2023-02-01T09:17:56.286Z,293.65
2023-02-01T09:19:14.790Z,4.24
2023-02-01T09:19:56.274Z,18.35
2023-02-01T09:20:56.302Z,208.94
2023-02-01T09:21:56.274Z,193.41
2023-02-01T09:22:56.270Z,115.76
2023-02-01T09:23:56.260Z,115.76
2023-02-01T09:24:56.298Z,115.76
2023-02-01T09:25:56.264Z,115.76
2023-02-01T09:26:56.318Z,115.76
2023-02-01T09:27:56.271Z,115.76
2023-02-01T09:28:56.252Z,24
2023-02-01T09:29:56.279Z,129.88
2023-02-01T09:30:56.315Z,112.94
2023-02-01T09:32:03.134Z,149.65
2023-02-01T09:32:56.264Z,214.59
2023-02-01T09:33:56.270Z,98.82
2023-02-01T09:34:56.259Z,129.88
2023-02-01T09:35:56.260Z,132.71
2023-02-01T09:36:56.315Z,192
2023-02-01T09:37:56.282Z,168
2023-02-01T09:38:56.264Z,136.94
2023-02-01T09:39:56.257Z,217.41
2023-02-01T09:40:56.262Z,227.29
2023-02-01T09:41:56.252Z,293.65
2023-02-01T09:42:56.279Z,62.12
2023-02-01T09:43:56.264Z,42.35
2023-02-01T09:44:56.277Z,275.29
2023-02-01T09:45:56.291Z,280.94
2023-02-01T09:46:56.283Z,354.35
2023-02-01T09:47:56.283Z,351.53
2023-02-01T09:48:56.285Z,207.53
2023-02-01T09:49:56.274Z,227.29
2023-02-01T09:50:56.324Z,170.82
2023-02-01T09:51:56.270Z,170.82
2023-02-01T09:52:56.336Z,184.94
2023-02-01T09:53:56.283Z,107.29
2023-02-01T09:54:56.277Z,2.82
2023-02-01T09:55:56.273Z,2.82
2023-02-01T09:56:56.269Z,337.41
2023-02-01T09:57:56.282Z,283.76
2023-02-01T09:58:56.277Z,249.88
2023-02-01T09:59:57.861Z,235.76
2023-02-01T10:00:56.300Z,201.88
2023-02-01T10:01:56.302Z,162.35
2023-02-01T10:02:56.288Z,162.35
2023-02-01T10:03:56.322Z,162.35
2023-02-01T10:04:56.295Z,258.35
2023-02-01T10:05:56.300Z,304.94
2023-02-01T10:06:56.315Z,314.82
2023-02-01T10:07:56.304Z,285.18
2023-02-01T10:08:56.334Z,242.82
2023-02-01T10:09:56.316Z,240
2023-02-01T10:10:56.314Z,254.12
2023-02-01T10:11:56.317Z,180.71
2023-02-01T10:12:56.319Z,180.71
2023-02-01T10:13:56.307Z,36.71
2023-02-01T10:14:56.318Z,56.47
2023-02-01T10:15:56.504Z,296.47
2023-02-01T10:16:56.384Z,273.88
2023-02-01T10:17:58.010Z,352.94
2023-02-01T10:18:56.343Z,357.18
2023-02-01T10:19:56.330Z,351.53
2023-02-01T10:20:56.325Z,11.29
2023-02-01T10:21:56.321Z,12.71
2023-02-01T10:23:16.205Z,360
2023-02-01T10:23:58.883Z,331.76
2023-02-01T10:24:56.372Z,331.76
2023-02-01T10:25:56.321Z,320.47
2023-02-01T10:26:56.465Z,249.88
2023-02-01T10:27:56.323Z,208.94
2023-02-01T10:28:56.324Z,214.59
2023-02-01T10:29:56.338Z,206.12
2023-02-01T10:30:56.427Z,189.18
2023-02-01T10:31:56.479Z,256.94
2023-02-01T10:32:56.356Z,196.24
2023-02-01T10:33:56.342Z,216
2023-02-01T10:34:56.347Z,216
2023-02-01T10:35:56.338Z,216
2023-02-01T10:36:56.336Z,216
2023-02-01T10:37:56.336Z,216
2023-02-01T10:38:56.355Z,216
2023-02-01T10:39:56.361Z,216
2023-02-01T10:40:56.373Z,216
2023-02-01T10:41:56.357Z,216
2023-02-01T10:42:56.357Z,216
2023-02-01T10:43:56.346Z,162.35
2023-02-01T10:44:56.345Z,148.24
2023-02-01T10:45:56.356Z,148.24
2023-02-01T10:46:56.348Z,64.94
2023-02-01T10:47:56.360Z,35.29
2023-02-01T10:48:56.348Z,286.59
2023-02-01T10:49:56.359Z,232.94
2023-02-01T10:50:56.354Z,228.71
2023-02-01T10:51:56.360Z,172.24
2023-02-01T10:52:56.349Z,172.24
2023-02-01T10:53:56.350Z,172.24
2023-02-01T10:54:56.371Z,172.24
2023-02-01T10:55:56.370Z,248.47
2023-02-01T10:56:56.389Z,248.47
2023-02-01T10:57:56.377Z,214.59
2023-02-01T10:58:56.374Z,214.59
2023-02-01T10:59:56.378Z,214.59
2023-02-01T11:00:56.378Z,214.59
2023-02-01T11:01:59.536Z,22.59
2023-02-01T11:02:56.460Z,66.35
2023-02-01T11:03:56.376Z,39.53
2023-02-01T11:04:56.386Z,330.35
2023-02-01T11:05:56.386Z,304.94
2023-02-01T11:06:56.396Z,296.47
2023-02-01T11:07:56.380Z,220.24
2023-02-01T11:08:56.388Z,327.53
2023-02-01T11:09:56.381Z,25.41
2023-02-01T11:10:56.375Z,25.41
2023-02-01T11:11:56.383Z,316.24
2023-02-01T11:12:56.399Z,265.41
2023-02-01T11:13:56.394Z,268.24
2023-02-01T11:14:56.390Z,255.53
2023-02-01T11:15:57.215Z,288
2023-02-01T11:16:56.394Z,213.18
2023-02-01T11:17:56.405Z,216
2023-02-01T11:18:56.386Z,194.82
2023-02-01T11:19:56.382Z,194.82
2023-02-01T11:20:56.403Z,153.88
2023-02-01T11:21:56.395Z,153.88
2023-02-01T11:22:56.397Z,153.88
2023-02-01T11:23:56.387Z,153.88
2023-02-01T11:24:56.402Z,293.65
2023-02-01T11:25:56.400Z,313.41
2023-02-01T11:26:56.504Z,286.59
2023-02-01T11:27:56.392Z,81.88
2023-02-01T11:28:56.444Z,74.82
2023-02-01T11:29:56.405Z,74.82
2023-02-01T11:30:56.521Z,74.82
2023-02-01T11:31:56.437Z,249.88
2023-02-01T11:32:56.421Z,221.65
2023-02-01T11:33:56.407Z,221.65
2023-02-01T11:34:56.421Z,221.65
2023-02-01T11:35:56.420Z,221.65
2023-02-01T11:36:56.442Z,286.59
2023-02-01T11:37:56.424Z,317.65
2023-02-01T11:38:56.417Z,317.65
2023-02-01T11:39:56.406Z,317.65
2023-02-01T11:40:56.413Z,317.65
2023-02-01T11:41:56.423Z,317.65
2023-02-01T11:42:56.431Z,35.29
2023-02-01T11:43:56.442Z,63.53
2023-02-01T11:44:56.472Z,38.12
2023-02-01T11:45:56.439Z,5.65
2023-02-01T11:46:56.435Z,4.24
2023-02-01T11:47:56.424Z,4.24
2023-02-01T11:48:56.447Z,4.24
2023-02-01T11:49:56.446Z,4.24
2023-02-01T11:50:56.442Z,4.24
2023-02-01T11:51:56.454Z,4.24
2023-02-01T11:52:56.436Z,4.24
2023-02-01T11:53:56.431Z,309.18
2023-02-01T11:54:56.487Z,303.53
2023-02-01T11:55:56.447Z,321.88
2023-02-01T11:56:56.434Z,273.88
2023-02-01T11:57:56.433Z,12.71
2023-02-01T11:58:56.436Z,38.12
2023-02-01T11:59:57.226Z,33.88
2023-02-01T12:00:56.490Z,302.12
2023-02-01T12:01:56.527Z,323.29
2023-02-01T12:02:56.487Z,334.59
2023-02-01T12:03:56.462Z,336
2023-02-01T12:04:56.461Z,327.53
2023-02-01T12:05:56.480Z,326.12
2023-02-01T12:06:56.464Z,296.47
2023-02-01T12:07:56.472Z,313.41
2023-02-01T12:08:56.450Z,7.06
2023-02-01T12:09:56.466Z,324.71
2023-02-01T12:10:56.467Z,323.29
2023-02-01T12:11:56.480Z,285.18
2023-02-01T12:12:56.460Z,344.47
2023-02-01T12:13:56.477Z,302.12
2023-02-01T12:14:56.476Z,2.82
2023-02-01T12:15:56.475Z,337.41
2023-02-01T12:16:56.515Z,306.35
2023-02-01T12:17:56.476Z,303.53
2023-02-01T12:18:56.487Z,313.41
2023-02-01T12:19:56.984Z,314.82
2023-02-01T12:20:56.477Z,18.35
2023-02-01T12:21:56.477Z,324.71
2023-02-01T12:22:56.487Z,300.71
2023-02-01T12:23:56.500Z,309.18
2023-02-01T12:24:56.487Z,344.47
2023-02-01T12:25:56.501Z,309.18
2023-02-01T12:26:56.535Z,341.65
2023-02-01T12:27:56.476Z,341.65
2023-02-01T12:28:56.485Z,303.53
2023-02-01T12:29:56.491Z,360
2023-02-01T12:30:56.550Z,317.65
2023-02-01T12:31:56.527Z,307.76
2023-02-01T12:32:56.528Z,350.12
2023-02-01T12:33:56.499Z,321.88
2023-02-01T12:34:56.500Z,331.76
2023-02-01T12:35:56.535Z,312
2023-02-01T12:36:56.503Z,306.35
2023-02-01T12:37:56.587Z,327.53
2023-02-01T12:38:56.508Z,296.47
2023-02-01T12:39:56.502Z,331.76
2023-02-01T12:40:56.527Z,341.65
2023-02-01T12:41:56.511Z,313.41